createdAt,value
2022-09-25T00:00:44.801Z,12.61
2022-09-25T00:03:12.775Z,12.62
2022-09-25T00:05:41.240Z,12.64
2022-09-25T00:08:08.732Z,12.60
2022-09-25T00:10:40.168Z,12.65
2022-09-25T00:13:06.914Z,12.65
2022-09-25T00:15:33.430Z,12.65
2022-09-25T00:17:59.997Z,12.60
2022-09-25T00:20:26.690Z,12.59
2022-09-25T00:22:54.339Z,12.62
2022-09-25T00:25:20.945Z,12.67
2022-09-25T00:27:50.322Z,12.69
2022-09-25T00:30:16.978Z,12.73
2022-09-25T00:32:43.500Z,12.72
2022-09-25T00:35:10.107Z,12.74
2022-09-25T00:37:36.955Z,12.71
2022-09-25T00:40:05.778Z,12.70
2022-09-25T00:42:33.167Z,12.68
2022-09-25T00:45:03.244Z,12.64
2022-09-25T00:48:01.347Z,12.65
2022-09-25T00:50:34.103Z,12.69
2022-09-25T00:53:15.087Z,12.70
2022-09-25T00:55:43.731Z,12.65
2022-09-25T00:58:13.276Z,12.63
2022-09-25T01:00:40.340Z,12.65
2022-09-25T01:03:08.364Z,12.64
2022-09-25T01:05:37.373Z,12.65
2022-09-25T01:08:08.025Z,12.68
2022-09-25T01:10:35.964Z,12.62
2022-09-25T01:13:03.111Z,12.61
2022-09-25T01:15:47.879Z,12.62
2022-09-25T01:18:17.262Z,12.62
2022-09-25T01:20:52.606Z,12.66
2022-09-25T01:23:37.491Z,12.72
2022-09-25T01:26:14.930Z,12.71
2022-09-25T01:29:04.495Z,12.65
2022-09-25T01:32:06.445Z,12.67
2022-09-25T01:35:01.086Z,12.70
2022-09-25T01:37:46.712Z,12.72
2022-09-25T01:40:25.413Z,12.73
2022-09-25T01:43:09.002Z,12.71
2022-09-25T01:45:54.638Z,12.75
2022-09-25T01:48:26.008Z,12.74
2022-09-25T01:51:03.393Z,12.77
2022-09-25T01:53:35.756Z,12.76
2022-09-25T01:56:09.314Z,12.80
2022-09-25T01:58:43.211Z,12.82
2022-09-25T02:01:14.927Z,12.84
2022-09-25T02:03:52.222Z,12.86
2022-09-25T02:06:20.980Z,12.78
2022-09-25T02:09:01.126Z,12.79
2022-09-25T02:11:33.858Z,12.77
2022-09-25T02:14:09.963Z,12.76
2022-09-25T02:16:43.475Z,12.76
2022-09-25T02:19:34.789Z,12.73
2022-09-25T02:22:10.156Z,12.74
2022-09-25T02:24:47.201Z,12.74
2022-09-25T02:27:14.859Z,12.69
2022-09-25T02:29:42.747Z,12.70
2022-09-25T02:32:12.411Z,12.74
2022-09-25T02:34:39.644Z,12.72
2022-09-25T02:37:13.809Z,12.65
2022-09-25T02:39:42.484Z,12.59
2022-09-25T02:42:38.395Z,12.58
2022-09-25T02:45:16.114Z,12.54
2022-09-25T02:48:23.991Z,12.55
2022-09-25T02:50:56.539Z,12.50
2022-09-25T02:53:42.549Z,12.42
2022-09-25T02:56:14.652Z,12.42
2022-09-25T02:58:46.651Z,12.41
2022-09-25T03:01:16.733Z,12.40
2022-09-25T03:03:45.805Z,12.41
2022-09-25T03:06:12.718Z,12.42
2022-09-25T03:08:46.466Z,12.43
2022-09-25T03:11:17.722Z,12.46
2022-09-25T03:13:44.609Z,12.39
2022-09-25T03:16:11.353Z,12.40
2022-09-25T03:18:38.199Z,12.34
2022-09-25T03:21:05.059Z,12.34
2022-09-25T03:23:35.045Z,12.31
2022-09-25T03:26:01.826Z,12.34
2022-09-25T03:28:28.586Z,12.29
2022-09-25T03:30:56.829Z,12.28
2022-09-25T03:33:23.514Z,12.29
2022-09-25T03:36:00.195Z,12.27
2022-09-25T03:38:26.927Z,12.26
2022-09-25T03:40:53.495Z,12.26
2022-09-25T03:43:20.196Z,12.23
2022-09-25T03:45:46.828Z,12.26
2022-09-25T03:48:13.397Z,12.25
2022-09-25T03:50:40.421Z,12.26
2022-09-25T03:53:06.998Z,12.25
2022-09-25T03:55:33.665Z,12.23
2022-09-25T03:58:00.192Z,12.22
2022-09-25T04:00:26.728Z,12.23
2022-09-25T04:02:53.311Z,12.25
2022-09-25T04:05:20.187Z,12.24
2022-09-25T04:07:46.708Z,12.22
2022-09-25T04:10:14.759Z,12.23
2022-09-25T04:12:42.629Z,12.19
2022-09-25T04:15:10.029Z,12.20
2022-09-25T04:17:36.570Z,12.23
2022-09-25T04:20:03.255Z,12.24
2022-09-25T04:22:29.829Z,12.30
2022-09-25T04:24:57.218Z,12.34
2022-09-25T04:27:24.286Z,12.38
2022-09-25T04:29:50.827Z,12.43
2022-09-25T04:32:36.079Z,12.41
2022-09-25T04:35:02.886Z,12.41
2022-09-25T04:37:29.558Z,12.46
2022-09-25T04:39:57.633Z,12.48
2022-09-25T04:42:25.399Z,12.46
2022-09-25T04:44:53.642Z,12.48
2022-09-25T04:47:21.163Z,12.50
2022-09-25T04:49:48.384Z,12.45
2022-09-25T04:52:16.336Z,12.45
2022-09-25T04:54:43.410Z,12.44
2022-09-25T04:57:23.351Z,12.46
2022-09-25T04:59:59.456Z,12.47
2022-09-25T05:02:29.073Z,12.46
2022-09-25T05:04:55.657Z,12.47
2022-09-25T05:07:22.342Z,12.48
2022-09-25T05:09:49.038Z,12.47
2022-09-25T05:12:15.918Z,12.47
2022-09-25T05:14:43.049Z,12.49
2022-09-25T05:17:10.855Z,12.48
2022-09-25T05:19:38.717Z,12.47
2022-09-25T05:22:05.483Z,12.49
2022-09-25T05:24:32.136Z,12.47
2022-09-25T05:26:59.073Z,12.51
2022-09-25T05:29:25.647Z,12.50
2022-09-25T05:31:52.237Z,12.50
2022-09-25T05:34:18.806Z,12.49
2022-09-25T05:36:47.135Z,12.50
2022-09-25T05:39:14.756Z,12.50
2022-09-25T05:41:41.533Z,12.53
2022-09-25T05:44:09.945Z,12.58
2022-09-25T05:46:37.062Z,12.60
2022-09-25T05:49:04.410Z,12.59
2022-09-25T05:51:32.145Z,12.62
2022-09-25T05:54:00.349Z,12.61
2022-09-25T05:56:26.916Z,12.60
2022-09-25T05:58:55.032Z,12.62
2022-09-25T06:01:21.801Z,12.65
2022-09-25T06:03:48.400Z,12.67
2022-09-25T06:06:15.152Z,12.70
2022-09-25T06:08:41.831Z,12.69
2022-09-25T06:11:08.696Z,12.67
2022-09-25T06:13:36.868Z,12.71
2022-09-25T06:16:05.532Z,12.66
2022-09-25T06:18:33.402Z,12.65
2022-09-25T06:21:05.002Z,12.69
2022-09-25T06:23:32.067Z,12.71
2022-09-25T06:26:03.146Z,12.73
2022-09-25T06:28:31.105Z,12.74
2022-09-25T06:31:01.111Z,12.73
2022-09-25T06:33:27.752Z,12.72
2022-09-25T06:35:55.327Z,12.77
2022-09-25T06:38:21.997Z,12.76
2022-09-25T06:40:48.668Z,12.77
2022-09-25T06:43:16.556Z,12.76
2022-09-25T06:45:43.949Z,12.77
2022-09-25T06:48:13.300Z,12.81
2022-09-25T06:50:44.781Z,12.80
2022-09-25T06:53:12.259Z,12.81
2022-09-25T06:55:39.522Z,12.82
2022-09-25T06:58:08.431Z,12.81
2022-09-25T07:00:35.028Z,12.82
2022-09-25T07:03:20.493Z,12.83
2022-09-25T07:05:48.285Z,12.90
2022-09-25T07:08:16.645Z,12.92
2022-09-25T07:10:56.838Z,12.99
2022-09-25T07:13:30.047Z,13.04
2022-09-25T07:15:59.072Z,13.10
2022-09-25T07:18:26.991Z,13.11
2022-09-25T07:20:54.471Z,13.19
2022-09-25T07:23:22.485Z,13.20
2022-09-25T07:25:49.493Z,13.20
2022-09-25T07:28:19.110Z,13.29
2022-09-25T07:30:46.070Z,13.29
2022-09-25T07:33:13.084Z,13.29
2022-09-25T07:35:39.987Z,13.26
2022-09-25T07:38:06.499Z,13.35
2022-09-25T07:40:35.517Z,13.40
2022-09-25T07:43:03.256Z,13.49
2022-09-25T07:45:30.050Z,13.54
2022-09-25T07:48:01.595Z,13.51
2022-09-25T07:50:32.018Z,13.46
2022-09-25T07:52:59.241Z,13.59
2022-09-25T07:55:28.182Z,13.53
2022-09-25T07:57:57.548Z,13.41
2022-09-25T08:00:24.327Z,13.44
2022-09-25T08:03:00.159Z,13.46
2022-09-25T08:05:27.471Z,13.60
2022-09-25T08:07:54.516Z,13.58
2022-09-25T08:10:21.909Z,13.63
2022-09-25T08:12:48.866Z,13.60
2022-09-25T08:15:15.855Z,13.55
2022-09-25T08:17:42.874Z,13.50
2022-09-25T08:20:10.236Z,13.52
2022-09-25T08:22:37.109Z,13.58
2022-09-25T08:25:03.925Z,13.52
2022-09-25T08:27:31.511Z,13.48
2022-09-25T08:29:58.429Z,13.50
2022-09-25T08:32:24.977Z,13.44
2022-09-25T08:34:51.573Z,13.44
2022-09-25T08:37:19.641Z,13.43
2022-09-25T08:39:46.291Z,13.44
2022-09-25T08:42:19.976Z,13.43
2022-09-25T08:45:21.230Z,13.41
2022-09-25T08:48:13.661Z,13.42
2022-09-25T08:50:40.303Z,13.34
2022-09-25T08:53:14.990Z,13.26
2022-09-25T08:56:00.324Z,13.17
2022-09-25T08:58:30.884Z,13.18
2022-09-25T09:01:09.141Z,13.15
2022-09-25T09:03:46.150Z,13.15
2022-09-25T09:06:15.910Z,13.13
2022-09-25T09:08:46.795Z,13.11
2022-09-25T09:11:18.186Z,12.99
2022-09-25T09:13:54.001Z,12.98
2022-09-25T09:16:26.642Z,12.98
2022-09-25T09:18:55.307Z,13.00
2022-09-25T09:21:30.732Z,12.95
2022-09-25T09:24:08.871Z,12.90
2022-09-25T09:27:04.307Z,12.96
2022-09-25T09:29:53.119Z,12.96
2022-09-25T09:32:37.744Z,12.90
2022-09-25T09:35:31.227Z,12.91
2022-09-25T09:38:40.272Z,12.92
2022-09-25T09:41:13.063Z,12.91
2022-09-25T09:44:02.979Z,12.93
2022-09-25T09:46:48.712Z,12.95
2022-09-25T09:49:37.015Z,12.86
2022-09-25T09:52:12.185Z,12.87
2022-09-25T09:54:47.802Z,12.87
2022-09-25T09:57:31.297Z,12.86
2022-09-25T10:00:05.385Z,12.83
2022-09-25T10:02:42.052Z,12.86
2022-09-25T10:05:26.634Z,12.82
2022-09-25T10:07:53.653Z,12.87
2022-09-25T10:10:23.466Z,12.87
2022-09-25T10:12:52.947Z,12.95
2022-09-25T10:15:33.874Z,12.92
2022-09-25T10:18:03.213Z,12.99
2022-09-25T10:20:40.252Z,13.01
2022-09-25T10:23:19.951Z,13.00
2022-09-25T10:25:46.627Z,13.08
2022-09-25T10:28:28.403Z,13.12
2022-09-25T10:30:57.018Z,13.12
2022-09-25T10:33:26.148Z,13.14
2022-09-25T10:35:55.076Z,13.16
2022-09-25T10:38:39.007Z,13.22
2022-09-25T10:41:18.089Z,13.29
2022-09-25T10:43:56.238Z,13.33
2022-09-25T10:46:49.651Z,13.32
2022-09-25T10:49:43.661Z,13.31
2022-09-25T10:52:13.134Z,13.33
2022-09-25T10:54:44.757Z,13.37
2022-09-25T10:57:34.477Z,13.27
2022-09-25T11:00:03.523Z,13.34
2022-09-25T11:02:41.588Z,13.34
2022-09-25T11:05:17.371Z,13.33
2022-09-25T11:07:52.452Z,13.37
2022-09-25T11:10:30.769Z,13.44
2022-09-25T11:12:58.539Z,13.52
2022-09-25T11:15:27.538Z,13.53
2022-09-25T11:17:56.502Z,13.66
2022-09-25T11:20:32.191Z,13.55
2022-09-25T11:23:28.303Z,13.54
2022-09-25T11:26:08.915Z,13.54
2022-09-25T11:28:42.473Z,13.56
2022-09-25T11:31:24.742Z,13.61
2022-09-25T11:34:31.867Z,13.62
2022-09-25T11:37:36.887Z,13.53
2022-09-25T11:40:50.282Z,13.60
2022-09-25T11:43:26.161Z,13.67
2022-09-25T11:46:02.739Z,13.77
2022-09-25T11:48:54.602Z,13.60
2022-09-25T11:52:02.322Z,13.71
2022-09-25T11:54:56.593Z,13.75
2022-09-25T11:57:38.802Z,13.96
2022-09-25T12:00:22.074Z,13.92
2022-09-25T12:02:48.678Z,13.98
2022-09-25T12:05:29.974Z,13.99
2022-09-25T12:08:15.688Z,13.95
2022-09-25T12:10:59.726Z,13.88
2022-09-25T12:13:39.037Z,13.85
2022-09-25T12:16:17.075Z,13.79
2022-09-25T12:18:49.505Z,13.96
2022-09-25T12:21:39.001Z,13.69
2022-09-25T12:24:18.569Z,13.77
2022-09-25T12:27:26.499Z,13.82
2022-09-25T12:30:11.986Z,13.75
2022-09-25T12:32:58.196Z,13.82
2022-09-25T12:35:46.640Z,13.73
2022-09-25T12:38:19.227Z,13.63
2022-09-25T12:40:56.407Z,13.84
2022-09-25T12:43:24.267Z,13.85
2022-09-25T12:46:12.756Z,13.87
2022-09-25T12:48:50.541Z,13.83
2022-09-25T12:51:26.016Z,13.83
2022-09-25T12:54:00.751Z,13.74
2022-09-25T12:56:41.836Z,13.91
2022-09-25T12:59:23.717Z,13.82
2022-09-25T13:02:25.978Z,13.87
2022-09-25T13:05:06.989Z,13.70
2022-09-25T13:07:38.396Z,13.88
2022-09-25T13:10:26.827Z,13.90
2022-09-25T13:12:57.089Z,13.91
2022-09-25T13:15:30.883Z,13.97
2022-09-25T13:17:59.143Z,13.91
2022-09-25T13:20:28.841Z,14.05
2022-09-25T13:23:03.636Z,13.99
2022-09-25T13:25:39.399Z,14.00
2022-09-25T13:28:07.979Z,14.03
2022-09-25T13:30:34.804Z,14.13
2022-09-25T13:33:03.309Z,14.19
2022-09-25T13:35:32.560Z,14.27
2022-09-25T13:38:40.240Z,14.22
2022-09-25T13:41:12.339Z,14.28
2022-09-25T13:43:39.111Z,14.41
2022-09-25T13:46:19.978Z,14.53
2022-09-25T13:48:46.643Z,14.63
2022-09-25T13:51:22.293Z,14.61
2022-09-25T13:54:04.552Z,14.60
2022-09-25T13:56:33.860Z,14.77
2022-09-25T13:59:07.825Z,14.92
2022-09-25T14:01:40.469Z,14.90
2022-09-25T14:04:16.493Z,15.03
2022-09-25T14:06:45.757Z,15.05
2022-09-25T14:09:15.151Z,15.08
2022-09-25T14:11:50.643Z,15.23
2022-09-25T14:14:30.076Z,15.28
2022-09-25T14:16:58.706Z,15.24
2022-09-25T14:19:30.220Z,15.18
2022-09-25T14:21:58.458Z,15.12
2022-09-25T14:24:30.984Z,15.05
2022-09-25T14:27:01.889Z,15.23
2022-09-25T14:29:43.153Z,15.12
2022-09-25T14:32:53.893Z,15.13
2022-09-25T14:35:30.693Z,15.25
2022-09-25T14:38:14.832Z,15.27
2022-09-25T14:41:05.415Z,15.18
2022-09-25T14:43:49.709Z,15.06
2022-09-25T14:46:20.912Z,15.12
2022-09-25T14:48:59.127Z,15.03
2022-09-25T14:51:31.672Z,14.93
2022-09-25T14:54:03.393Z,15.16
2022-09-25T14:56:33.327Z,15.14
2022-09-25T14:59:06.561Z,15.19
2022-09-25T15:01:33.529Z,15.24
2022-09-25T15:04:03.299Z,15.11
2022-09-25T15:06:32.879Z,15.03
2022-09-25T15:09:03.120Z,15.00
2022-09-25T15:11:42.688Z,14.97
2022-09-25T15:14:12.187Z,14.91
2022-09-25T15:16:57.963Z,14.93
2022-09-25T15:19:33.226Z,14.92
2022-09-25T15:22:00.039Z,14.93
2022-09-25T15:24:30.890Z,15.00
2022-09-25T15:27:04.580Z,14.91
2022-09-25T15:29:35.932Z,14.90
2022-09-25T15:32:03.589Z,14.89
2022-09-25T15:34:32.974Z,14.88
2022-09-25T15:37:26.395Z,14.98
2022-09-25T15:39:53.709Z,14.71
2022-09-25T15:42:20.723Z,14.57
2022-09-25T15:44:48.839Z,14.63
2022-09-25T15:47:37.128Z,14.53
2022-09-25T15:50:06.306Z,14.51
2022-09-25T15:52:34.074Z,14.47
2022-09-25T15:55:15.725Z,14.68
2022-09-25T15:57:42.366Z,14.97
2022-09-25T16:00:37.056Z,14.97
2022-09-25T16:03:42.452Z,14.91
2022-09-25T16:06:16.681Z,14.83
2022-09-25T16:08:44.079Z,14.83
2022-09-25T16:11:21.815Z,14.82
2022-09-25T16:14:28.594Z,14.55
2022-09-25T16:16:56.150Z,14.47
2022-09-25T16:19:22.621Z,14.37
2022-09-25T16:21:49.381Z,14.19
2022-09-25T16:24:21.967Z,14.45
2022-09-25T16:26:55.354Z,14.42
2022-09-25T16:29:25.688Z,14.31
2022-09-25T16:31:54.085Z,14.27
2022-09-25T16:34:28.886Z,14.12
2022-09-25T16:37:00.013Z,14.16
2022-09-25T16:39:38.767Z,14.01
2022-09-25T16:42:29.547Z,13.77
2022-09-25T16:45:14.187Z,13.79
2022-09-25T16:47:46.843Z,13.68
2022-09-25T16:50:16.242Z,13.51
2022-09-25T16:52:43.951Z,13.53
2022-09-25T16:55:23.266Z,13.36
2022-09-25T16:57:51.668Z,13.36
2022-09-25T17:00:21.835Z,13.50
2022-09-25T17:02:48.690Z,13.36
2022-09-25T17:05:19.364Z,13.17
2022-09-25T17:07:48.086Z,13.00
2022-09-25T17:10:20.303Z,12.84
2022-09-25T17:12:53.544Z,12.75
2022-09-25T17:15:27.517Z,12.70
2022-09-25T17:17:54.485Z,12.55
2022-09-25T17:20:23.573Z,12.46
2022-09-25T17:22:54.307Z,12.39
2022-09-25T17:25:38.766Z,12.26
2022-09-25T17:28:07.152Z,12.12
2022-09-25T17:30:34.171Z,12.13
2022-09-25T17:33:05.288Z,12.04
2022-09-25T17:36:04.158Z,11.92
2022-09-25T17:38:34.216Z,11.91
2022-09-25T17:41:06.737Z,11.68
2022-09-25T17:43:33.950Z,11.72
2022-09-25T17:46:01.226Z,11.42
2022-09-25T17:48:30.742Z,11.43
2022-09-25T17:51:02.849Z,11.47
2022-09-25T17:53:32.201Z,11.42
2022-09-25T17:56:00.208Z,11.23
2022-09-25T17:58:28.955Z,11.21
2022-09-25T18:00:59.363Z,11.36
2022-09-25T18:03:26.798Z,11.17
2022-09-25T18:05:53.364Z,10.97
2022-09-25T18:08:19.934Z,10.85
2022-09-25T18:10:46.668Z,10.73
2022-09-25T18:13:15.591Z,10.77
2022-09-25T18:15:48.551Z,10.84
2022-09-25T18:18:15.538Z,10.81
2022-09-25T18:21:05.711Z,10.61
2022-09-25T18:23:35.763Z,10.63
2022-09-25T18:26:04.091Z,10.56
2022-09-25T18:28:31.261Z,10.56
2022-09-25T18:30:58.905Z,10.45
2022-09-25T18:33:25.584Z,10.48
2022-09-25T18:35:53.083Z,10.48
2022-09-25T18:38:19.581Z,10.37
2022-09-25T18:40:46.155Z,10.30
2022-09-25T18:43:12.994Z,10.36
2022-09-25T18:45:40.331Z,10.20
2022-09-25T18:48:06.917Z,10.10
2022-09-25T18:50:33.503Z,10.12
2022-09-25T18:53:00.765Z,10.12
2022-09-25T18:55:27.569Z,10.16
2022-09-25T18:57:54.965Z,10.07
2022-09-25T19:00:22.172Z,10.12
2022-09-25T19:02:48.827Z,10.22
2022-09-25T19:05:17.211Z,10.12
2022-09-25T19:07:43.747Z,10.12
2022-09-25T19:10:10.937Z,10.13
2022-09-25T19:12:37.577Z,10.02
2022-09-25T19:15:04.816Z,9.89
2022-09-25T19:17:31.981Z,9.95
2022-09-25T19:19:58.620Z,9.86
2022-09-25T19:22:25.743Z,9.83
2022-09-25T19:24:56.789Z,9.80
2022-09-25T19:27:25.507Z,9.79
2022-09-25T19:29:52.131Z,9.88
2022-09-25T19:32:19.037Z,9.89
2022-09-25T19:34:45.625Z,9.89
2022-09-25T19:37:12.317Z,9.87
2022-09-25T19:40:00.278Z,9.91
2022-09-25T19:42:28.196Z,9.97
2022-09-25T19:44:55.974Z,9.98
2022-09-25T19:47:23.530Z,9.95
2022-09-25T19:49:50.053Z,10.05
2022-09-25T19:52:17.139Z,10.05
2022-09-25T19:54:43.673Z,10.03
2022-09-25T19:57:10.519Z,10.03
2022-09-25T19:59:37.038Z,9.90
2022-09-25T20:02:03.850Z,9.84
2022-09-25T20:04:30.535Z,9.88
2022-09-25T20:06:58.860Z,9.86
2022-09-25T20:09:28.548Z,9.83
2022-09-25T20:11:55.063Z,9.76
2022-09-25T20:14:25.612Z,9.75
2022-09-25T20:16:54.014Z,9.73
2022-09-25T20:19:20.998Z,9.71
2022-09-25T20:21:47.951Z,9.69
2022-09-25T20:24:14.532Z,9.58
2022-09-25T20:26:41.165Z,9.39
2022-09-25T20:29:12.165Z,9.28
2022-09-25T20:31:41.236Z,9.25
2022-09-25T20:34:12.359Z,9.23
2022-09-25T20:36:39.217Z,9.28
2022-09-25T20:39:06.674Z,9.28
2022-09-25T20:41:33.708Z,9.10
2022-09-25T20:44:00.546Z,9.12
2022-09-25T20:46:27.550Z,9.14
2022-09-25T20:48:57.491Z,9.07
2022-09-25T20:51:27.579Z,9.15
2022-09-25T20:53:59.784Z,9.13
2022-09-25T20:56:27.989Z,9.02
2022-09-25T20:58:56.324Z,9.08
2022-09-25T21:01:26.921Z,9.04
2022-09-25T21:03:54.167Z,8.90
2022-09-25T21:06:23.547Z,8.85
2022-09-25T21:08:54.837Z,8.73
2022-09-25T21:11:22.563Z,8.76
2022-09-25T21:13:54.149Z,8.74
2022-09-25T21:16:22.087Z,8.60
2022-09-25T21:18:54.916Z,8.59
2022-09-25T21:21:23.153Z,8.51
2022-09-25T21:23:54.255Z,8.42
2022-09-25T21:26:23.165Z,8.46
2022-09-25T21:28:51.853Z,8.42
2022-09-25T21:31:23.988Z,8.35
2022-09-25T21:33:52.956Z,8.33
2022-09-25T21:36:21.017Z,8.31
2022-09-25T21:38:49.190Z,8.28
2022-09-25T21:41:18.021Z,8.23
2022-09-25T21:43:45.323Z,8.22
2022-09-25T21:46:14.686Z,8.14
2022-09-25T21:48:48.273Z,8.16
2022-09-25T21:51:15.512Z,8.12
2022-09-25T21:53:42.277Z,8.15
2022-09-25T21:56:28.635Z,8.08
2022-09-25T21:58:56.759Z,8.14
2022-09-25T22:01:26.493Z,8.08
2022-09-25T22:03:55.491Z,7.93
2022-09-25T22:06:34.218Z,7.93
2022-09-25T22:09:22.521Z,7.90
2022-09-25T22:11:49.628Z,7.89
2022-09-25T22:14:16.914Z,7.85
2022-09-25T22:16:46.666Z,7.89
2022-09-25T22:19:15.285Z,7.84
2022-09-25T22:21:43.258Z,7.75
2022-09-25T22:24:10.636Z,7.78
2022-09-25T22:26:39.699Z,7.71
2022-09-25T22:29:06.454Z,7.64
2022-09-25T22:31:34.874Z,7.74
2022-09-25T22:34:07.224Z,7.71
2022-09-25T22:36:36.382Z,7.70
2022-09-25T22:39:04.952Z,7.79
2022-09-25T22:41:32.523Z,7.85
2022-09-25T22:44:00.937Z,7.95
2022-09-25T22:46:28.513Z,7.92
2022-09-25T22:48:55.160Z,7.85
2022-09-25T22:51:23.706Z,7.76
2022-09-25T22:53:51.411Z,7.84
2022-09-25T22:56:32.593Z,7.80
2022-09-25T22:59:05.881Z,7.72
2022-09-25T23:01:39.875Z,7.71
2022-09-25T23:04:07.673Z,7.75
2022-09-25T23:06:35.331Z,7.78
2022-09-25T23:09:05.286Z,7.83
2022-09-25T23:11:32.482Z,7.75
2022-09-25T23:14:03.138Z,7.72
2022-09-25T23:16:31.391Z,7.78
2022-09-25T23:18:58.696Z,7.83
2022-09-25T23:21:26.536Z,7.78
2022-09-25T23:24:00.417Z,7.91
2022-09-25T23:26:27.840Z,7.94
2022-09-25T23:28:54.519Z,7.88
2022-09-25T23:31:21.813Z,7.83
2022-09-25T23:33:48.886Z,7.89
2022-09-25T23:36:19.583Z,7.85
2022-09-25T23:38:47.246Z,7.88
2022-09-25T23:41:16.124Z,7.80
2022-09-25T23:43:43.345Z,7.81
2022-09-25T23:46:10.458Z,7.84
2022-09-25T23:48:37.139Z,7.76
2022-09-25T23:51:03.970Z,7.79
2022-09-25T23:53:30.759Z,7.84
2022-09-25T23:55:57.308Z,7.79
2022-09-25T23:58:23.883Z,7.73
